createdAt,value
2023-07-27T00:00:50.661Z,18.21
2023-07-27T00:03:18.737Z,18.21
2023-07-27T00:05:47.241Z,18.21
2023-07-27T00:08:16.494Z,18.20
2023-07-27T00:10:45.797Z,18.19
2023-07-27T00:13:13.832Z,18.17
2023-07-27T00:15:41.748Z,18.17
2023-07-27T00:18:09.777Z,18.15
2023-07-27T00:20:37.704Z,18.15
2023-07-27T00:23:05.627Z,18.15
2023-07-27T00:25:33.605Z,18.15
2023-07-27T00:28:03.033Z,18.17
2023-07-27T00:30:31.554Z,18.14
2023-07-27T00:33:00.261Z,18.15
2023-07-27T00:35:28.310Z,18.13
2023-07-27T00:37:56.265Z,18.12
2023-07-27T00:40:24.222Z,18.12
2023-07-27T00:42:52.219Z,18.12
2023-07-27T00:45:21.967Z,18.13
2023-07-27T00:47:50.006Z,18.10
2023-07-27T00:50:43.537Z,18.07
2023-07-27T00:53:11.960Z,18.06
2023-07-27T00:55:39.933Z,18.07
2023-07-27T00:58:07.967Z,18.05
2023-07-27T01:00:37.637Z,18.07
2023-07-27T01:03:06.471Z,18.04
2023-07-27T01:05:35.072Z,18.03
2023-07-27T01:08:03.160Z,18.02
2023-07-27T01:10:47.875Z,18.05
2023-07-27T01:13:25.039Z,18.01
2023-07-27T01:16:00.385Z,18.02
2023-07-27T01:18:35.158Z,18.02
2023-07-27T01:21:16.159Z,18.03
2023-07-27T01:24:19.687Z,17.98
2023-07-27T01:27:20.187Z,17.96
2023-07-27T01:30:10.013Z,17.98
2023-07-27T01:32:41.352Z,17.98
2023-07-27T01:35:12.870Z,17.97
2023-07-27T01:37:43.626Z,17.98
2023-07-27T01:40:14.625Z,17.98
2023-07-27T01:42:44.192Z,17.96
2023-07-27T01:45:14.954Z,17.97
2023-07-27T01:47:47.876Z,17.98
2023-07-27T01:50:16.811Z,17.67
2023-07-27T01:52:46.851Z,17.93
2023-07-27T01:55:16.958Z,17.95
2023-07-27T01:57:46.535Z,17.96
2023-07-27T02:00:15.804Z,17.95
2023-07-27T02:02:48.312Z,17.97
2023-07-27T02:05:17.081Z,17.95
2023-07-27T02:07:45.392Z,17.95
2023-07-27T02:10:17.426Z,17.97
2023-07-27T02:12:51.783Z,17.95
2023-07-27T02:15:25.390Z,17.97
2023-07-27T02:18:01.187Z,17.97
2023-07-27T02:20:35.596Z,17.97
2023-07-27T02:23:05.239Z,17.95
2023-07-27T02:25:35.199Z,17.95
2023-07-27T02:28:03.245Z,17.94
2023-07-27T02:30:31.449Z,17.93
2023-07-27T02:33:00.778Z,17.94
2023-07-27T02:35:28.704Z,17.93
2023-07-27T02:37:57.497Z,17.91
2023-07-27T02:40:27.449Z,17.91
2023-07-27T02:42:56.460Z,17.90
2023-07-27T02:45:25.376Z,17.89
2023-07-27T02:47:53.875Z,17.89
2023-07-27T02:50:24.644Z,17.90
2023-07-27T02:53:02.453Z,17.87
2023-07-27T02:55:30.924Z,17.86
2023-07-27T02:58:01.522Z,17.85
2023-07-27T03:00:33.669Z,17.80
2023-07-27T03:03:02.444Z,17.80
2023-07-27T03:05:31.858Z,17.80
2023-07-27T03:07:59.790Z,17.75
2023-07-27T03:10:36.475Z,17.73
2023-07-27T03:13:05.949Z,17.69
2023-07-27T03:15:33.974Z,17.67
2023-07-27T03:18:01.960Z,17.65
2023-07-27T03:20:31.307Z,17.65
2023-07-27T03:23:00.768Z,17.61
2023-07-27T03:25:33.092Z,17.58
2023-07-27T03:28:01.045Z,17.55
2023-07-27T03:30:28.950Z,17.55
2023-07-27T03:32:56.019Z,17.52
2023-07-27T03:35:24.181Z,17.49
2023-07-27T03:37:53.794Z,17.49
2023-07-27T03:40:22.474Z,17.45
2023-07-27T03:42:50.429Z,17.43
2023-07-27T03:45:18.589Z,17.40
2023-07-27T03:47:47.490Z,17.37
2023-07-27T03:50:15.811Z,17.35
2023-07-27T03:52:45.353Z,17.32
2023-07-27T03:55:19.751Z,17.32
2023-07-27T03:57:49.801Z,17.00
2023-07-27T04:00:17.668Z,17.21
2023-07-27T04:02:48.190Z,17.22
2023-07-27T04:05:16.285Z,17.19
2023-07-27T04:07:44.325Z,17.17
2023-07-27T04:10:12.538Z,17.12
2023-07-27T04:12:41.785Z,17.10
2023-07-27T04:15:11.123Z,17.07
2023-07-27T04:17:39.211Z,17.00
2023-07-27T04:20:09.435Z,16.98
2023-07-27T04:22:37.337Z,16.94
2023-07-27T04:25:05.930Z,16.93
2023-07-27T04:27:33.824Z,16.89
2023-07-27T04:30:03.170Z,16.88
2023-07-27T04:32:31.670Z,16.84
2023-07-27T04:34:59.624Z,16.81
2023-07-27T04:37:27.779Z,16.78
2023-07-27T04:39:55.672Z,16.73
2023-07-27T04:42:23.761Z,16.70
2023-07-27T04:44:51.818Z,16.67
2023-07-27T04:47:21.159Z,16.63
2023-07-27T04:49:49.085Z,16.58
2023-07-27T04:52:17.022Z,16.52
2023-07-27T04:54:44.981Z,16.47
2023-07-27T04:57:38.545Z,16.38
2023-07-27T05:00:08.062Z,16.34
2023-07-27T05:02:37.427Z,16.31
2023-07-27T05:05:05.864Z,16.24
2023-07-27T05:07:33.791Z,16.19
2023-07-27T05:10:01.770Z,16.15
2023-07-27T05:12:29.868Z,16.11
2023-07-27T05:14:57.811Z,16.06
2023-07-27T05:17:25.719Z,16.02
2023-07-27T05:19:56.126Z,16.00
2023-07-27T05:23:25.351Z,15.94
2023-07-27T05:25:53.413Z,15.84
2023-07-27T05:28:21.351Z,15.81
2023-07-27T05:30:50.627Z,15.79
2023-07-27T05:33:18.630Z,15.74
2023-07-27T05:35:50.848Z,15.72
2023-07-27T05:38:19.546Z,15.64
2023-07-27T05:40:47.482Z,15.61
2023-07-27T05:43:15.433Z,15.59
2023-07-27T05:45:43.536Z,15.55
2023-07-27T05:48:11.520Z,15.50
2023-07-27T05:50:39.536Z,15.47
2023-07-27T05:53:08.844Z,15.45
2023-07-27T05:55:36.898Z,15.40
2023-07-27T05:58:18.440Z,15.38
2023-07-27T06:01:17.618Z,15.33
2023-07-27T06:03:54.710Z,15.32
2023-07-27T06:06:33.912Z,15.30
2023-07-27T06:09:04.006Z,15.30
2023-07-27T06:11:32.399Z,15.28
2023-07-27T06:14:00.308Z,15.27
2023-07-27T06:16:28.358Z,15.25
2023-07-27T06:18:56.329Z,15.25
2023-07-27T06:21:24.463Z,15.24
2023-07-27T06:23:52.398Z,15.24
2023-07-27T06:26:22.240Z,15.25
2023-07-27T06:28:50.235Z,15.24
2023-07-27T06:31:18.394Z,15.24
2023-07-27T06:33:48.006Z,15.23
2023-07-27T06:36:16.283Z,15.20
2023-07-27T06:38:44.180Z,15.21
2023-07-27T06:41:12.235Z,15.22
2023-07-27T06:43:41.494Z,15.23
2023-07-27T06:46:09.466Z,15.23
2023-07-27T06:48:37.459Z,15.24
2023-07-27T06:51:05.484Z,15.24
2023-07-27T06:53:33.432Z,15.24
2023-07-27T06:56:01.306Z,15.25
2023-07-27T06:58:29.235Z,15.25
2023-07-27T07:00:58.704Z,15.27
2023-07-27T07:03:27.221Z,15.25
2023-07-27T07:05:55.910Z,15.26
2023-07-27T07:08:24.163Z,15.26
2023-07-27T07:10:52.125Z,15.26
2023-07-27T07:13:20.099Z,15.27
2023-07-27T07:15:48.029Z,15.28
2023-07-27T07:18:17.277Z,15.29
2023-07-27T07:20:47.967Z,15.27
2023-07-27T07:23:16.677Z,15.27
2023-07-27T07:25:44.949Z,15.29
2023-07-27T07:28:14.801Z,15.30
2023-07-27T07:30:43.225Z,15.30
2023-07-27T07:33:11.263Z,15.31
2023-07-27T07:35:40.769Z,15.33
2023-07-27T07:38:11.696Z,15.33
2023-07-27T07:40:39.759Z,15.32
2023-07-27T07:43:08.680Z,15.34
2023-07-27T07:45:36.668Z,15.34
2023-07-27T07:48:05.048Z,15.35
2023-07-27T07:50:34.355Z,15.36
2023-07-27T07:53:04.992Z,15.39
2023-07-27T07:55:36.328Z,15.42
2023-07-27T07:58:04.380Z,15.41
2023-07-27T08:00:32.896Z,15.45
2023-07-27T08:03:01.020Z,15.46
2023-07-27T08:05:29.052Z,15.47
2023-07-27T08:07:57.186Z,15.49
2023-07-27T08:10:28.840Z,15.54
2023-07-27T08:12:56.798Z,15.50
2023-07-27T08:15:27.825Z,15.56
2023-07-27T08:18:23.767Z,15.55
2023-07-27T08:21:02.502Z,15.58
2023-07-27T08:23:30.712Z,15.57
2023-07-27T08:26:01.025Z,15.61
2023-07-27T08:28:29.414Z,15.61
2023-07-27T08:30:57.407Z,15.64
2023-07-27T08:33:25.666Z,15.66
2023-07-27T08:35:53.999Z,15.69
2023-07-27T08:38:22.167Z,15.71
2023-07-27T08:40:56.703Z,15.77
2023-07-27T08:43:26.793Z,15.78
2023-07-27T08:45:55.229Z,15.78
2023-07-27T08:48:26.096Z,15.83
2023-07-27T08:50:54.892Z,15.83
2023-07-27T08:53:22.902Z,15.86
2023-07-27T08:55:50.964Z,15.87
2023-07-27T08:58:20.510Z,15.91
2023-07-27T09:00:51.273Z,15.93
2023-07-27T09:03:19.345Z,15.93
2023-07-27T09:06:04.344Z,15.97
2023-07-27T09:08:32.763Z,15.95
2023-07-27T09:11:08.420Z,15.99
2023-07-27T09:13:36.764Z,15.98
2023-07-27T09:16:08.036Z,16.02
2023-07-27T09:18:37.469Z,16.03
2023-07-27T09:21:10.509Z,16.07
2023-07-27T09:23:39.303Z,16.07
2023-07-27T09:26:08.064Z,16.10
2023-07-27T09:28:36.554Z,16.13
2023-07-27T09:31:06.275Z,16.14
2023-07-27T09:33:34.359Z,16.15
2023-07-27T09:36:04.291Z,16.19
2023-07-27T09:38:33.690Z,16.21
2023-07-27T09:41:08.290Z,16.26
2023-07-27T09:43:39.060Z,16.27
2023-07-27T09:46:08.520Z,16.31
2023-07-27T09:48:37.453Z,16.33
2023-07-27T09:51:09.536Z,16.37
2023-07-27T09:53:38.897Z,16.37
2023-07-27T09:56:07.795Z,16.40
2023-07-27T09:58:37.318Z,16.43
2023-07-27T10:01:05.814Z,16.46
2023-07-27T10:03:36.108Z,16.49
2023-07-27T10:06:05.209Z,16.50
2023-07-27T10:08:34.924Z,16.54
2023-07-27T10:11:03.799Z,16.54
2023-07-27T10:13:40.373Z,16.59
2023-07-27T10:16:11.459Z,16.60
2023-07-27T10:18:46.367Z,16.64
2023-07-27T10:21:28.936Z,16.66
2023-07-27T10:23:59.909Z,16.67
2023-07-27T10:26:48.688Z,16.69
2023-07-27T10:29:17.909Z,16.70
2023-07-27T10:31:46.817Z,16.74
2023-07-27T10:34:26.322Z,16.78
2023-07-27T10:36:58.578Z,16.78
2023-07-27T10:39:29.746Z,16.78
2023-07-27T10:42:07.096Z,16.84
2023-07-27T10:44:42.718Z,16.86
2023-07-27T10:47:11.523Z,16.86
2023-07-27T10:49:42.388Z,16.91
2023-07-27T10:52:11.140Z,16.91
2023-07-27T10:54:40.715Z,16.93
2023-07-27T10:57:10.284Z,16.96
2023-07-27T10:59:40.322Z,16.98
2023-07-27T11:02:17.436Z,17.01
2023-07-27T11:04:47.603Z,17.02
2023-07-27T11:07:16.455Z,17.04
2023-07-27T11:09:48.381Z,17.09
2023-07-27T11:12:16.398Z,17.06
2023-07-27T11:14:44.323Z,17.11
2023-07-27T11:17:13.821Z,17.15
2023-07-27T11:19:41.966Z,17.16
2023-07-27T11:22:14.519Z,17.22
2023-07-27T11:24:43.075Z,17.21
2023-07-27T11:27:12.043Z,17.25
2023-07-27T11:29:40.554Z,17.29
2023-07-27T11:32:09.286Z,17.32
2023-07-27T11:34:37.531Z,17.35
2023-07-27T11:37:05.924Z,17.42
2023-07-27T11:39:36.444Z,17.45
2023-07-27T11:42:10.790Z,17.49
2023-07-27T11:44:39.290Z,17.48
2023-07-27T11:47:08.035Z,17.51
2023-07-27T11:49:35.942Z,17.53
2023-07-27T11:52:08.328Z,17.57
2023-07-27T11:54:41.254Z,17.56
2023-07-27T11:57:09.585Z,17.55
2023-07-27T11:59:37.872Z,17.57
2023-07-27T12:02:06.369Z,17.59
2023-07-27T12:04:34.386Z,17.60
2023-07-27T12:07:02.354Z,17.60
2023-07-27T12:09:30.461Z,17.62
2023-07-27T12:11:59.992Z,17.64
2023-07-27T12:14:27.820Z,17.63
2023-07-27T12:19:26.799Z,17.65
2023-07-27T12:21:55.821Z,17.66
2023-07-27T12:24:26.023Z,17.68
2023-07-27T12:34:28.443Z,17.72
2023-07-27T12:39:27.144Z,17.74
2023-07-27T12:44:27.161Z,17.77
2023-07-27T12:46:54.963Z,17.76
2023-07-27T12:49:23.004Z,17.76
2023-07-27T12:51:50.893Z,17.77
2023-07-27T12:54:18.755Z,17.79
2023-07-27T12:56:46.569Z,17.77
2023-07-27T12:59:14.475Z,17.79
2023-07-27T13:01:43.689Z,17.81
2023-07-27T13:04:11.655Z,17.81
2023-07-27T13:06:39.548Z,17.83
2023-07-27T13:09:08.810Z,17.85
2023-07-27T13:11:37.299Z,17.87
2023-07-27T13:14:06.031Z,17.91
2023-07-27T13:16:35.208Z,17.93
2023-07-27T13:19:06.526Z,17.98
2023-07-27T13:21:34.650Z,18.00
2023-07-27T13:24:03.297Z,18.02
2023-07-27T13:26:45.786Z,18.08
2023-07-27T13:29:16.847Z,18.04
2023-07-27T13:31:44.948Z,18.09
2023-07-27T13:34:14.269Z,18.14
2023-07-27T13:36:42.300Z,18.13
2023-07-27T13:39:10.157Z,18.13
2023-07-27T13:41:38.085Z,18.15
2023-07-27T13:44:05.872Z,18.17
2023-07-27T13:46:34.032Z,18.18
2023-07-27T13:49:01.934Z,18.18
2023-07-27T13:51:31.711Z,18.21
2023-07-27T13:54:00.339Z,18.21
2023-07-27T13:56:28.183Z,18.22
2023-07-27T13:58:56.057Z,18.24
2023-07-27T14:01:24.330Z,18.24
2023-07-27T14:03:52.297Z,18.25
2023-07-27T14:06:20.904Z,18.27
2023-07-27T14:08:50.290Z,18.29
2023-07-27T14:11:18.205Z,18.27
2023-07-27T14:13:46.306Z,18.29
2023-07-27T14:16:14.264Z,18.29
2023-07-27T14:18:43.676Z,18.28
2023-07-27T14:21:11.774Z,18.28
2023-07-27T14:23:39.627Z,18.29
2023-07-27T14:26:09.242Z,18.32
2023-07-27T14:28:40.349Z,18.31
2023-07-27T14:31:13.520Z,18.31
2023-07-27T14:33:43.594Z,18.32
2023-07-27T14:36:11.772Z,18.31
2023-07-27T14:38:39.726Z,18.32
2023-07-27T14:41:12.781Z,18.36
2023-07-27T14:43:43.960Z,18.34
2023-07-27T14:46:12.374Z,18.35
2023-07-27T14:48:40.825Z,18.34
2023-07-27T14:51:08.886Z,18.34
2023-07-27T14:53:36.921Z,18.35
2023-07-27T14:56:05.098Z,18.34
2023-07-27T14:58:37.265Z,18.38
2023-07-27T15:01:14.927Z,18.32
2023-07-27T15:03:52.179Z,18.35
2023-07-27T15:06:20.982Z,18.34
2023-07-27T15:08:48.896Z,18.33
2023-07-27T15:13:49.014Z,18.34
2023-07-27T15:16:16.916Z,18.31
2023-07-27T15:18:44.846Z,18.29
2023-07-27T15:21:12.698Z,18.29
2023-07-27T15:23:40.680Z,18.28
2023-07-27T15:26:09.218Z,18.28
2023-07-27T15:28:37.987Z,18.26
2023-07-27T15:31:09.253Z,18.27
2023-07-27T15:33:37.948Z,18.24
2023-07-27T15:36:06.242Z,18.24
2023-07-27T15:38:34.169Z,18.24
2023-07-27T15:41:03.862Z,18.24
2023-07-27T15:43:31.867Z,18.22
2023-07-27T15:45:59.743Z,18.21
2023-07-27T15:48:29.025Z,18.24
2023-07-27T15:50:57.116Z,18.21
2023-07-27T15:53:25.036Z,18.20
2023-07-27T15:55:52.963Z,18.20
2023-07-27T15:58:22.214Z,18.20
2023-07-27T16:00:56.790Z,18.22
2023-07-27T16:03:25.270Z,18.19
2023-07-27T16:05:54.584Z,18.20
2023-07-27T16:08:23.489Z,18.18
2023-07-27T16:10:51.324Z,18.18
2023-07-27T16:13:19.198Z,18.19
2023-07-27T16:15:47.522Z,18.19
2023-07-27T16:18:15.519Z,18.19
2023-07-27T16:20:44.077Z,18.20
2023-07-27T16:23:14.829Z,18.21
2023-07-27T16:25:44.257Z,18.20
2023-07-27T16:28:12.461Z,18.19
2023-07-27T16:30:42.798Z,18.21
2023-07-27T16:33:11.428Z,18.18
2023-07-27T16:35:39.700Z,18.18
2023-07-27T16:38:07.572Z,18.17
2023-07-27T16:40:36.818Z,18.19
2023-07-27T16:43:04.887Z,18.16
2023-07-27T16:45:32.788Z,18.15
2023-07-27T16:48:00.798Z,18.17
2023-07-27T16:50:28.715Z,18.15
2023-07-27T16:52:56.641Z,18.15
2023-07-27T16:55:27.219Z,18.15
2023-07-27T16:57:56.846Z,18.16
2023-07-27T17:00:25.107Z,18.14
2023-07-27T17:02:53.194Z,18.14
2023-07-27T17:05:21.265Z,18.15
2023-07-27T17:07:49.237Z,18.14
2023-07-27T17:10:17.413Z,18.15
2023-07-27T17:12:45.392Z,18.15
2023-07-27T17:15:14.751Z,18.18
2023-07-27T17:17:42.815Z,18.15
2023-07-27T17:20:12.407Z,18.15
2023-07-27T17:22:40.431Z,18.15
2023-07-27T17:25:08.666Z,18.17
2023-07-27T17:27:36.623Z,18.16
2023-07-27T17:30:05.046Z,18.17
2023-07-27T17:32:34.340Z,18.18
2023-07-27T17:35:02.585Z,18.16
2023-07-27T17:37:30.583Z,18.15
2023-07-27T17:39:58.543Z,18.14
2023-07-27T17:42:26.863Z,18.14
2023-07-27T17:44:54.684Z,18.14
2023-07-27T17:47:22.570Z,18.14
2023-07-27T17:49:51.836Z,18.15
2023-07-27T17:52:19.859Z,18.13
2023-07-27T17:54:47.735Z,18.12
2023-07-27T17:57:15.642Z,18.14
2023-07-27T17:59:43.664Z,18.13
2023-07-27T18:02:11.794Z,18.12
2023-07-27T18:04:39.659Z,18.13
2023-07-27T18:07:08.926Z,18.17
2023-07-27T18:09:37.618Z,18.12
2023-07-27T18:12:06.042Z,18.13
2023-07-27T18:14:34.151Z,18.13
2023-07-27T18:17:02.154Z,18.14
2023-07-27T18:19:30.196Z,18.13
2023-07-27T18:21:58.892Z,18.14
2023-07-27T18:24:29.347Z,18.15
2023-07-27T18:26:57.442Z,18.14
2023-07-27T18:29:25.276Z,18.15
2023-07-27T18:31:53.424Z,18.17
2023-07-27T18:34:21.880Z,18.18
2023-07-27T18:36:50.718Z,18.20
2023-07-27T18:39:18.614Z,18.20
2023-07-27T18:41:48.147Z,18.22
2023-07-27T18:44:16.160Z,18.20
2023-07-27T18:46:44.106Z,18.20
2023-07-27T18:49:11.953Z,18.20
2023-07-27T18:51:39.996Z,18.20
2023-07-27T18:54:07.987Z,18.20
2023-07-27T18:56:36.131Z,18.20
2023-07-27T18:59:05.487Z,18.21
2023-07-27T19:01:34.011Z,18.20
2023-07-27T19:04:02.225Z,18.19
2023-07-27T19:06:30.288Z,18.19
2023-07-27T19:08:58.130Z,18.19
2023-07-27T19:11:26.127Z,18.19
2023-07-27T19:13:53.906Z,18.19
2023-07-27T19:16:27.428Z,18.22
2023-07-27T19:18:55.977Z,18.20
2023-07-27T19:21:23.781Z,18.19
2023-07-27T19:23:51.920Z,18.20
2023-07-27T19:26:21.817Z,18.21
2023-07-27T19:28:50.724Z,18.20
2023-07-27T19:31:22.983Z,18.22
2023-07-27T19:33:52.934Z,18.19
2023-07-27T19:36:21.529Z,18.20
2023-07-27T19:38:49.837Z,18.20
2023-07-27T19:41:18.904Z,18.20
2023-07-27T19:43:47.065Z,18.18
2023-07-27T19:46:14.997Z,18.18
2023-07-27T19:48:42.984Z,18.18
2023-07-27T19:51:12.206Z,18.20
2023-07-27T19:53:41.993Z,18.18
2023-07-27T19:56:12.881Z,18.17
2023-07-27T19:58:41.026Z,18.16
2023-07-27T20:01:09.252Z,18.15
2023-07-27T20:03:38.270Z,18.14
2023-07-27T20:06:06.199Z,18.13
2023-07-27T20:08:46.441Z,18.14
2023-07-27T20:11:16.517Z,18.11
2023-07-27T20:13:46.422Z,18.11
2023-07-27T20:16:14.798Z,18.10
2023-07-27T20:18:44.122Z,18.10
2023-07-27T20:21:12.979Z,18.09
2023-07-27T20:23:42.815Z,18.10
2023-07-27T20:26:10.826Z,18.09
2023-07-27T20:28:38.667Z,18.08
2023-07-27T20:31:07.464Z,18.09
2023-07-27T20:33:35.439Z,18.09
2023-07-27T20:36:03.381Z,18.09
2023-07-27T20:38:31.217Z,18.08
2023-07-27T20:41:05.355Z,18.12
2023-07-27T20:43:33.491Z,18.10
2023-07-27T20:46:01.849Z,18.10
2023-07-27T20:48:30.735Z,18.11
2023-07-27T20:50:59.144Z,18.10
2023-07-27T20:53:27.051Z,18.10
2023-07-27T20:55:56.953Z,18.10
2023-07-27T20:58:26.430Z,18.13
2023-07-27T21:01:00.974Z,18.13
2023-07-27T21:03:28.974Z,18.10
2023-07-27T21:05:56.846Z,18.12
2023-07-27T21:08:24.797Z,18.12
2023-07-27T21:10:53.084Z,18.12
2023-07-27T21:13:21.072Z,18.12
2023-07-27T21:16:00.249Z,18.15
2023-07-27T21:18:28.329Z,18.12
2023-07-27T21:20:56.253Z,18.12
2023-07-27T21:23:24.456Z,18.13
2023-07-27T21:25:58.890Z,18.17
2023-07-27T21:28:27.394Z,18.12
2023-07-27T21:30:57.218Z,18.14
2023-07-27T21:33:29.207Z,18.11
2023-07-27T21:35:57.994Z,18.11
2023-07-27T21:38:25.825Z,18.10
2023-07-27T21:40:54.094Z,18.09
2023-07-27T21:43:22.354Z,18.08
2023-07-27T21:45:54.327Z,18.08
2023-07-27T21:48:23.889Z,18.07
2023-07-27T21:51:17.302Z,18.02
2023-07-27T21:53:45.255Z,18.03
2023-07-27T21:56:40.962Z,18.03
2023-07-27T21:59:09.185Z,18.00
2023-07-27T22:01:37.169Z,17.99
2023-07-27T22:04:06.662Z,18.02
2023-07-27T22:06:34.953Z,17.99
2023-07-27T22:09:04.614Z,17.98
2023-07-27T22:11:33.030Z,17.97
2023-07-27T22:14:01.016Z,17.95
2023-07-27T22:16:29.037Z,17.95
2023-07-27T22:18:57.082Z,17.93
2023-07-27T22:21:26.444Z,17.94
2023-07-27T22:23:54.725Z,17.93
2023-07-27T22:26:50.808Z,17.89
2023-07-27T22:29:39.039Z,17.90
2023-07-27T22:32:51.641Z,17.88
2023-07-27T22:35:50.250Z,17.83
2023-07-27T22:38:46.947Z,17.87
2023-07-27T22:41:37.323Z,17.84
2023-07-27T22:44:08.698Z,17.80
2023-07-27T22:46:39.374Z,17.79
2023-07-27T22:49:16.194Z,17.79
2023-07-27T22:51:44.809Z,17.78
2023-07-27T22:54:27.132Z,17.79
2023-07-27T22:57:13.391Z,17.75
2023-07-27T23:00:00.982Z,17.76
2023-07-27T23:02:32.817Z,17.73
2023-07-27T23:05:02.768Z,17.72
2023-07-27T23:07:41.158Z,17.69
2023-07-27T23:10:11.717Z,17.73
2023-07-27T23:12:41.796Z,17.71
2023-07-27T23:15:21.502Z,17.69
2023-07-27T23:17:57.389Z,17.71
2023-07-27T23:23:41.737Z,17.70
2023-07-27T23:26:57.365Z,17.68
2023-07-27T23:29:38.633Z,17.66
2023-07-27T23:32:16.457Z,17.67
2023-07-27T23:34:52.145Z,17.66
2023-07-27T23:37:28.045Z,17.66
2023-07-27T23:41:31.622Z,17.63
2023-07-27T23:46:58.977Z,17.60
2023-07-27T23:55:38.565Z,17.62
2023-07-27T23:58:14.158Z,17.63
